sensor_id;sensor_type;location;lat;lon;timestamp;temperature;humidity
3310;DHT22;1667;53.238;10.394;2022-10-28T00:02:26;16.40;99.90
3310;DHT22;1667;53.238;10.394;2022-10-28T00:07:24;16.40;99.90
3310;DHT22;1667;53.238;10.394;2022-10-28T00:12:22;16.40;99.90
3310;DHT22;1667;53.238;10.394;2022-10-28T00:17:22;16.40;99.90
3310;DHT22;1667;53.238;10.394;2022-10-28T00:22:25;16.40;99.90
3310;DHT22;1667;53.238;10.394;2022-10-28T00:27:24;16.40;99.90
3310;DHT22;1667;53.238;10.394;2022-10-28T00:32:24;16.40;99.90
3310;DHT22;1667;53.238;10.394;2022-10-28T00:37:22;16.30;99.90
3310;DHT22;1667;53.238;10.394;2022-10-28T00:42:20;16.30;99.90
3310;DHT22;1667;53.238;10.394;2022-10-28T00:52:41;16.30;99.90
3310;DHT22;1667;53.238;10.394;2022-10-28T00:57:41;16.30;99.90
3310;DHT22;1667;53.238;10.394;2022-10-28T01:02:43;16.40;99.90
3310;DHT22;1667;53.238;10.394;2022-10-28T01:07:43;16.40;99.90
3310;DHT22;1667;53.238;10.394;2022-10-28T01:12:52;16.40;99.90
3310;DHT22;1667;53.238;10.394;2022-10-28T01:17:59;16.30;99.90
3310;DHT22;1667;53.238;10.394;2022-10-28T01:23:05;16.40;99.90
3310;DHT22;1667;53.238;10.394;2022-10-28T01:28:34;16.30;99.90
3310;DHT22;1667;53.238;10.394;2022-10-28T01:33:41;16.30;99.90
3310;DHT22;1667;53.238;10.394;2022-10-28T01:38:48;16.30;99.90
3310;DHT22;1667;53.238;10.394;2022-10-28T01:43:52;16.30;99.90
3310;DHT22;1667;53.238;10.394;2022-10-28T01:48:56;16.30;99.90
3310;DHT22;1667;53.238;10.394;2022-10-28T01:53:57;16.40;99.90
3310;DHT22;1667;53.238;10.394;2022-10-28T01:58:59;16.40;99.90
3310;DHT22;1667;53.238;10.394;2022-10-28T02:04:00;16.40;99.90
3310;DHT22;1667;53.238;10.394;2022-10-28T02:09:08;16.40;99.90
3310;DHT22;1667;53.238;10.394;2022-10-28T02:14:24;16.40;99.90
3310;DHT22;1667;53.238;10.394;2022-10-28T02:19:34;16.40;99.90
3310;DHT22;1667;53.238;10.394;2022-10-28T02:24:40;16.40;99.90
3310;DHT22;1667;53.238;10.394;2022-10-28T02:29:48;16.40;99.90
3310;DHT22;1667;53.238;10.394;2022-10-28T02:34:52;16.40;99.90
3310;DHT22;1667;53.238;10.394;2022-10-28T02:39:52;16.40;99.90
3310;DHT22;1667;53.238;10.394;2022-10-28T02:44:54;16.40;99.90
3310;DHT22;1667;53.238;10.394;2022-10-28T02:56:56;16.40;99.90
3310;DHT22;1667;53.238;10.394;2022-10-28T03:01:56;16.40;99.90
3310;DHT22;1667;53.238;10.394;2022-10-28T03:06:54;16.40;99.90
3310;DHT22;1667;53.238;10.394;2022-10-28T03:11:53;16.40;99.90
3310;DHT22;1667;53.238;10.394;2022-10-28T03:16:51;16.40;99.90
3310;DHT22;1667;53.238;10.394;2022-10-28T03:21:50;16.40;99.90
3310;DHT22;1667;53.238;10.394;2022-10-28T03:26:48;16.40;99.90
3310;DHT22;1667;53.238;10.394;2022-10-28T03:31:47;16.40;99.90
3310;DHT22;1667;53.238;10.394;2022-10-28T03:36:45;16.30;99.90
3310;DHT22;1667;53.238;10.394;2022-10-28T03:41:43;16.30;99.90
3310;DHT22;1667;53.238;10.394;2022-10-28T03:46:42;16.30;99.90
3310;DHT22;1667;53.238;10.394;2022-10-28T03:51:41;16.30;99.90
3310;DHT22;1667;53.238;10.394;2022-10-28T03:56:39;16.30;99.90
3310;DHT22;1667;53.238;10.394;2022-10-28T04:01:37;16.20;99.90
3310;DHT22;1667;53.238;10.394;2022-10-28T04:06:36;16.20;99.90
3310;DHT22;1667;53.238;10.394;2022-10-28T04:11:35;16.20;99.90
3310;DHT22;1667;53.238;10.394;2022-10-28T04:16:34;16.20;99.90
3310;DHT22;1667;53.238;10.394;2022-10-28T04:21:32;16.20;99.90
3310;DHT22;1667;53.238;10.394;2022-10-28T04:26:30;16.20;99.90
3310;DHT22;1667;53.238;10.394;2022-10-28T04:31:30;16.20;99.90
3310;DHT22;1667;53.238;10.394;2022-10-28T04:36:28;16.20;99.90
3310;DHT22;1667;53.238;10.394;2022-10-28T04:41:26;16.20;99.90
3310;DHT22;1667;53.238;10.394;2022-10-28T04:46:24;16.20;99.90
3310;DHT22;1667;53.238;10.394;2022-10-28T04:57:55;16.20;99.90
3310;DHT22;1667;53.238;10.394;2022-10-28T05:02:53;16.20;99.90
3310;DHT22;1667;53.238;10.394;2022-10-28T05:07:52;16.20;99.90
3310;DHT22;1667;53.238;10.394;2022-10-28T05:12:51;16.20;99.90
3310;DHT22;1667;53.238;10.394;2022-10-28T05:17:50;16.20;99.90
3310;DHT22;1667;53.238;10.394;2022-10-28T05:22:50;16.20;99.90
3310;DHT22;1667;53.238;10.394;2022-10-28T05:27:50;16.20;99.90
3310;DHT22;1667;53.238;10.394;2022-10-28T05:32:50;16.20;99.90
3310;DHT22;1667;53.238;10.394;2022-10-28T05:37:51;16.20;99.90
3310;DHT22;1667;53.238;10.394;2022-10-28T05:42:49;16.30;99.90
3310;DHT22;1667;53.238;10.394;2022-10-28T05:47:49;16.20;99.90
3310;DHT22;1667;53.238;10.394;2022-10-28T05:52:49;16.20;99.90
3310;DHT22;1667;53.238;10.394;2022-10-28T05:57:49;16.30;99.90
3310;DHT22;1667;53.238;10.394;2022-10-28T06:02:50;16.20;99.90
3310;DHT22;1667;53.238;10.394;2022-10-28T06:07:49;16.20;99.90
3310;DHT22;1667;53.238;10.394;2022-10-28T06:12:47;16.20;99.90
3310;DHT22;1667;53.238;10.394;2022-10-28T06:17:46;16.20;99.90
3310;DHT22;1667;53.238;10.394;2022-10-28T06:22:51;16.20;99.90
3310;DHT22;1667;53.238;10.394;2022-10-28T06:27:53;16.10;99.90
3310;DHT22;1667;53.238;10.394;2022-10-28T06:32:52;16.10;99.90
3310;DHT22;1667;53.238;10.394;2022-10-28T06:37:54;16.10;99.90
3310;DHT22;1667;53.238;10.394;2022-10-28T06:42:56;16.10;99.90
3310;DHT22;1667;53.238;10.394;2022-10-28T06:47:55;16.10;99.90
3310;DHT22;1667;53.238;10.394;2022-10-28T06:52:56;16.10;99.90
3310;DHT22;1667;53.238;10.394;2022-10-28T06:57:58;16.10;99.90
3310;DHT22;1667;53.238;10.394;2022-10-28T07:02:57;16.10;99.90
3310;DHT22;1667;53.238;10.394;2022-10-28T07:13:57;16.10;99.90
3310;DHT22;1667;53.238;10.394;2022-10-28T07:18:55;16.00;99.90
3310;DHT22;1667;53.238;10.394;2022-10-28T07:23:54;16.10;99.90
3310;DHT22;1667;53.238;10.394;2022-10-28T07:28:52;16.10;99.90
3310;DHT22;1667;53.238;10.394;2022-10-28T07:33:52;16.20;99.90
3310;DHT22;1667;53.238;10.394;2022-10-28T07:38:51;16.20;99.90
3310;DHT22;1667;53.238;10.394;2022-10-28T07:43:50;16.30;99.90
3310;DHT22;1667;53.238;10.394;2022-10-28T07:48:48;16.30;99.90
3310;DHT22;1667;53.238;10.394;2022-10-28T07:53:48;16.30;99.90
3310;DHT22;1667;53.238;10.394;2022-10-28T07:58:46;16.40;99.90
3310;DHT22;1667;53.238;10.394;2022-10-28T08:03:44;16.50;99.90
3310;DHT22;1667;53.238;10.394;2022-10-28T08:15:33;16.60;99.90
3310;DHT22;1667;53.238;10.394;2022-10-28T08:20:31;16.60;99.90
3310;DHT22;1667;53.238;10.394;2022-10-28T08:25:29;16.70;99.90
3310;DHT22;1667;53.238;10.394;2022-10-28T08:30:27;16.80;99.90
3310;DHT22;1667;53.238;10.394;2022-10-28T08:35:42;16.90;99.90
3310;DHT22;1667;53.238;10.394;2022-10-28T08:40:48;17.10;99.90
3310;DHT22;1667;53.238;10.394;2022-10-28T08:45:52;17.20;99.90
3310;DHT22;1667;53.238;10.394;2022-10-28T08:50:58;17.30;99.90
3310;DHT22;1667;53.238;10.394;2022-10-28T08:56:06;17.40;99.90
3310;DHT22;1667;53.238;10.394;2022-10-28T09:01:17;17.60;99.90
3310;DHT22;1667;53.238;10.394;2022-10-28T09:06:18;17.70;99.90
3310;DHT22;1667;53.238;10.394;2022-10-28T09:11:35;17.90;99.90
3310;DHT22;1667;53.238;10.394;2022-10-28T09:16:42;18.10;99.90
3310;DHT22;1667;53.238;10.394;2022-10-28T09:21:46;18.20;99.90
3310;DHT22;1667;53.238;10.394;2022-10-28T09:26:51;18.40;99.90
3310;DHT22;1667;53.238;10.394;2022-10-28T09:31:59;18.60;99.90
3310;DHT22;1667;53.238;10.394;2022-10-28T09:37:03;18.70;99.90
3310;DHT22;1667;53.238;10.394;2022-10-28T09:42:03;18.90;99.90
3310;DHT22;1667;53.238;10.394;2022-10-28T09:47:03;19.00;99.90
3310;DHT22;1667;53.238;10.394;2022-10-28T09:52:14;19.20;99.90
3310;DHT22;1667;53.238;10.394;2022-10-28T09:57:14;19.30;99.90
3310;DHT22;1667;53.238;10.394;2022-10-28T10:02:25;19.50;99.90
3310;DHT22;1667;53.238;10.394;2022-10-28T10:07:35;19.70;99.90
3310;DHT22;1667;53.238;10.394;2022-10-28T10:12:35;19.80;99.90
3310;DHT22;1667;53.238;10.394;2022-10-28T10:17:39;19.90;99.90
3310;DHT22;1667;53.238;10.394;2022-10-28T10:22:41;20.10;99.90
3310;DHT22;1667;53.238;10.394;2022-10-28T10:27:40;20.30;99.90
3310;DHT22;1667;53.238;10.394;2022-10-28T10:32:38;20.40;99.90
3310;DHT22;1667;53.238;10.394;2022-10-28T10:37:42;20.50;99.90
3310;DHT22;1667;53.238;10.394;2022-10-28T10:42:42;20.70;99.90
3310;DHT22;1667;53.238;10.394;2022-10-28T10:48:11;20.80;99.90
3310;DHT22;1667;53.238;10.394;2022-10-28T10:53:23;21.00;99.90
3310;DHT22;1667;53.238;10.394;2022-10-28T10:58:24;21.20;99.90
3310;DHT22;1667;53.238;10.394;2022-10-28T11:03:26;21.20;99.90
3310;DHT22;1667;53.238;10.394;2022-10-28T11:08:37;21.40;99.90
3310;DHT22;1667;53.238;10.394;2022-10-28T11:13:36;21.50;99.90
3310;DHT22;1667;53.238;10.394;2022-10-28T11:18:41;21.60;99.90
3310;DHT22;1667;53.238;10.394;2022-10-28T11:23:48;21.70;99.90
3310;DHT22;1667;53.238;10.394;2022-10-28T11:29:01;21.80;99.90
3310;DHT22;1667;53.238;10.394;2022-10-28T11:34:21;21.90;99.90
3310;DHT22;1667;53.238;10.394;2022-10-28T11:39:28;22.10;99.90
3310;DHT22;1667;53.238;10.394;2022-10-28T11:44:42;22.20;99.90
3310;DHT22;1667;53.238;10.394;2022-10-28T11:55:45;22.40;99.90
3310;DHT22;1667;53.238;10.394;2022-10-28T12:00:56;22.40;99.90
3310;DHT22;1667;53.238;10.394;2022-10-28T12:06:06;22.40;99.90
3310;DHT22;1667;53.238;10.394;2022-10-28T12:11:17;22.40;99.90
3310;DHT22;1667;53.238;10.394;2022-10-28T12:16:24;22.50;99.90
3310;DHT22;1667;53.238;10.394;2022-10-28T12:21:28;22.50;99.90
3310;DHT22;1667;53.238;10.394;2022-10-28T12:26:34;22.50;99.90
3310;DHT22;1667;53.238;10.394;2022-10-28T12:31:40;22.60;99.90
3310;DHT22;1667;53.238;10.394;2022-10-28T12:36:43;22.60;99.90
3310;DHT22;1667;53.238;10.394;2022-10-28T12:41:51;22.70;99.90
3310;DHT22;1667;53.238;10.394;2022-10-28T12:46:59;22.80;99.90
3310;DHT22;1667;53.238;10.394;2022-10-28T12:52:06;22.90;99.90
3310;DHT22;1667;53.238;10.394;2022-10-28T12:57:12;22.90;99.90
3310;DHT22;1667;53.238;10.394;2022-10-28T13:09:26;23.10;99.90
3310;DHT22;1667;53.238;10.394;2022-10-28T13:14:50;23.10;99.90
3310;DHT22;1667;53.238;10.394;2022-10-28T13:20:03;23.10;99.90
3310;DHT22;1667;53.238;10.394;2022-10-28T13:25:16;23.20;99.90
3310;DHT22;1667;53.238;10.394;2022-10-28T13:30:19;23.20;99.90
3310;DHT22;1667;53.238;10.394;2022-10-28T13:35:22;23.20;99.90
3310;DHT22;1667;53.238;10.394;2022-10-28T13:45:50;23.20;99.90
3310;DHT22;1667;53.238;10.394;2022-10-28T13:50:49;23.10;99.90
3310;DHT22;1667;53.238;10.394;2022-10-28T13:55:47;23.10;99.90
3310;DHT22;1667;53.238;10.394;2022-10-28T14:00:45;23.00;99.90
3310;DHT22;1667;53.238;10.394;2022-10-28T14:05:53;23.00;99.90
3310;DHT22;1667;53.238;10.394;2022-10-28T14:11:02;22.90;99.90
3310;DHT22;1667;53.238;10.394;2022-10-28T14:16:15;22.80;99.90
3310;DHT22;1667;53.238;10.394;2022-10-28T14:21:16;22.80;99.90
3310;DHT22;1667;53.238;10.394;2022-10-28T14:26:14;22.80;99.90
3310;DHT22;1667;53.238;10.394;2022-10-28T14:43:53;22.60;99.90
3310;DHT22;1667;53.238;10.394;2022-10-28T14:48:55;22.60;99.90
3310;DHT22;1667;53.238;10.394;2022-10-28T14:53:56;22.40;99.90
3310;DHT22;1667;53.238;10.394;2022-10-28T14:58:58;22.40;99.90
3310;DHT22;1667;53.238;10.394;2022-10-28T15:03:59;22.40;99.90
3310;DHT22;1667;53.238;10.394;2022-10-28T15:09:05;22.30;99.90
3310;DHT22;1667;53.238;10.394;2022-10-28T15:14:21;22.30;99.90
3310;DHT22;1667;53.238;10.394;2022-10-28T15:19:22;22.20;99.90
3310;DHT22;1667;53.238;10.394;2022-10-28T15:24:22;22.10;99.90
3310;DHT22;1667;53.238;10.394;2022-10-28T15:29:20;22.10;99.90
3310;DHT22;1667;53.238;10.394;2022-10-28T15:34:19;22.00;99.90
3310;DHT22;1667;53.238;10.394;2022-10-28T15:39:18;22.00;99.90
3310;DHT22;1667;53.238;10.394;2022-10-28T15:44:38;21.90;99.90
3310;DHT22;1667;53.238;10.394;2022-10-28T15:49:38;21.80;99.90
3310;DHT22;1667;53.238;10.394;2022-10-28T15:54:37;21.70;99.90
3310;DHT22;1667;53.238;10.394;2022-10-28T15:59:38;21.70;99.90
3310;DHT22;1667;53.238;10.394;2022-10-28T16:04:42;21.60;99.90
3310;DHT22;1667;53.238;10.394;2022-10-28T16:09:43;21.50;99.90
3310;DHT22;1667;53.238;10.394;2022-10-28T16:14:45;21.40;99.90
3310;DHT22;1667;53.238;10.394;2022-10-28T16:19:50;21.40;99.90
3310;DHT22;1667;53.238;10.394;2022-10-28T16:24:49;21.30;99.90
3310;DHT22;1667;53.238;10.394;2022-10-28T16:29:50;21.30;99.90
3310;DHT22;1667;53.238;10.394;2022-10-28T16:34:48;21.20;99.90
3310;DHT22;1667;53.238;10.394;2022-10-28T16:39:46;21.10;99.90
3310;DHT22;1667;53.238;10.394;2022-10-28T16:44:45;21.10;99.90
3310;DHT22;1667;53.238;10.394;2022-10-28T16:49:44;21.00;99.90
3310;DHT22;1667;53.238;10.394;2022-10-28T16:54:52;20.90;99.90
3310;DHT22;1667;53.238;10.394;2022-10-28T16:59:50;20.90;99.90
3310;DHT22;1667;53.238;10.394;2022-10-28T17:04:50;20.80;99.90
3310;DHT22;1667;53.238;10.394;2022-10-28T17:09:48;20.80;99.90
3310;DHT22;1667;53.238;10.394;2022-10-28T17:14:47;20.70;99.90
3310;DHT22;1667;53.238;10.394;2022-10-28T17:19:46;20.70;99.90
3310;DHT22;1667;53.238;10.394;2022-10-28T17:24:45;20.60;99.90
3310;DHT22;1667;53.238;10.394;2022-10-28T17:29:44;20.60;99.90
3310;DHT22;1667;53.238;10.394;2022-10-28T17:34:42;20.60;99.90
3310;DHT22;1667;53.238;10.394;2022-10-28T17:39:40;20.50;99.90
3310;DHT22;1667;53.238;10.394;2022-10-28T17:44:40;20.40;99.90
3310;DHT22;1667;53.238;10.394;2022-10-28T17:49:38;20.40;99.90
3310;DHT22;1667;53.238;10.394;2022-10-28T17:54:36;20.30;99.90
3310;DHT22;1667;53.238;10.394;2022-10-28T17:59:35;20.30;99.90
3310;DHT22;1667;53.238;10.394;2022-10-28T18:04:34;20.30;99.90
3310;DHT22;1667;53.238;10.394;2022-10-28T18:09:32;20.20;99.90
3310;DHT22;1667;53.238;10.394;2022-10-28T18:14:30;20.20;99.90
3310;DHT22;1667;53.238;10.394;2022-10-28T18:19:29;20.20;99.90
3310;DHT22;1667;53.238;10.394;2022-10-28T18:24:28;20.10;99.90
3310;DHT22;1667;53.238;10.394;2022-10-28T18:29:26;20.10;99.90
3310;DHT22;1667;53.238;10.394;2022-10-28T18:34:24;20.00;99.90
3310;DHT22;1667;53.238;10.394;2022-10-28T18:39:23;20.00;99.90
3310;DHT22;1667;53.238;10.394;2022-10-28T18:44:22;19.90;99.90
3310;DHT22;1667;53.238;10.394;2022-10-28T18:49:27;19.90;99.90
3310;DHT22;1667;53.238;10.394;2022-10-28T19:00:26;19.80;99.90
3310;DHT22;1667;53.238;10.394;2022-10-28T19:05:24;19.70;99.90
3310;DHT22;1667;53.238;10.394;2022-10-28T19:10:22;19.70;99.90
3310;DHT22;1667;53.238;10.394;2022-10-28T19:15:20;19.70;99.90
3310;DHT22;1667;53.238;10.394;2022-10-28T19:20:20;19.70;99.90
3310;DHT22;1667;53.238;10.394;2022-10-28T19:25:19;19.70;99.90
3310;DHT22;1667;53.238;10.394;2022-10-28T19:30:17;19.70;99.90
3310;DHT22;1667;53.238;10.394;2022-10-28T19:35:15;19.70;99.90
3310;DHT22;1667;53.238;10.394;2022-10-28T19:40:15;19.70;99.90
3310;DHT22;1667;53.238;10.394;2022-10-28T19:45:13;19.70;99.90
3310;DHT22;1667;53.238;10.394;2022-10-28T19:50:12;19.70;99.90
3310;DHT22;1667;53.238;10.394;2022-10-28T19:55:11;19.60;99.90
3310;DHT22;1667;53.238;10.394;2022-10-28T20:00:13;19.60;99.90
3310;DHT22;1667;53.238;10.394;2022-10-28T20:05:11;19.60;99.90
3310;DHT22;1667;53.238;10.394;2022-10-28T20:10:09;19.60;99.90
3310;DHT22;1667;53.238;10.394;2022-10-28T20:15:07;19.60;99.90
3310;DHT22;1667;53.238;10.394;2022-10-28T20:20:08;19.60;99.90
3310;DHT22;1667;53.238;10.394;2022-10-28T20:25:09;19.60;99.90
3310;DHT22;1667;53.238;10.394;2022-10-28T20:30:09;19.50;99.90
3310;DHT22;1667;53.238;10.394;2022-10-28T20:35:09;19.50;99.90
3310;DHT22;1667;53.238;10.394;2022-10-28T20:40:08;19.50;99.90
3310;DHT22;1667;53.238;10.394;2022-10-28T20:45:06;19.50;99.90
3310;DHT22;1667;53.238;10.394;2022-10-28T20:50:05;19.40;99.90
3310;DHT22;1667;53.238;10.394;2022-10-28T20:55:06;19.40;99.90
3310;DHT22;1667;53.238;10.394;2022-10-28T21:00:05;19.40;99.90
3310;DHT22;1667;53.238;10.394;2022-10-28T21:05:04;19.40;99.90
3310;DHT22;1667;53.238;10.394;2022-10-28T21:10:05;19.40;99.90
3310;DHT22;1667;53.238;10.394;2022-10-28T21:15:04;19.40;99.90
3310;DHT22;1667;53.238;10.394;2022-10-28T21:20:03;19.30;99.90
3310;DHT22;1667;53.238;10.394;2022-10-28T21:25:02;19.40;99.90
3310;DHT22;1667;53.238;10.394;2022-10-28T21:30:02;19.30;99.90
3310;DHT22;1667;53.238;10.394;2022-10-28T21:35:00;19.30;99.90
3310;DHT22;1667;53.238;10.394;2022-10-28T21:39:58;19.30;99.90
3310;DHT22;1667;53.238;10.394;2022-10-28T21:44:57;19.30;99.90
3310;DHT22;1667;53.238;10.394;2022-10-28T21:49:56;19.30;99.90
3310;DHT22;1667;53.238;10.394;2022-10-28T21:54:54;19.30;99.90
3310;DHT22;1667;53.238;10.394;2022-10-28T21:59:52;19.20;99.90
3310;DHT22;1667;53.238;10.394;2022-10-28T22:04:50;19.20;99.90
3310;DHT22;1667;53.238;10.394;2022-10-28T22:09:50;19.20;99.90
3310;DHT22;1667;53.238;10.394;2022-10-28T22:14:48;19.20;99.90
3310;DHT22;1667;53.238;10.394;2022-10-28T22:19:46;19.20;99.90
3310;DHT22;1667;53.238;10.394;2022-10-28T22:24:45;19.20;99.90
3310;DHT22;1667;53.238;10.394;2022-10-28T22:29:45;19.20;99.90
3310;DHT22;1667;53.238;10.394;2022-10-28T22:34:43;19.20;99.90
3310;DHT22;1667;53.238;10.394;2022-10-28T22:46:33;19.10;99.90
3310;DHT22;1667;53.238;10.394;2022-10-28T22:51:32;19.00;99.90
3310;DHT22;1667;53.238;10.394;2022-10-28T22:56:30;19.00;99.90
3310;DHT22;1667;53.238;10.394;2022-10-28T23:01:29;19.00;99.90
3310;DHT22;1667;53.238;10.394;2022-10-28T23:06:28;19.00;99.90
3310;DHT22;1667;53.238;10.394;2022-10-28T23:11:27;19.00;99.90
3310;DHT22;1667;53.238;10.394;2022-10-28T23:16:25;18.90;99.90
3310;DHT22;1667;53.238;10.394;2022-10-28T23:21:24;18.80;99.90
3310;DHT22;1667;53.238;10.394;2022-10-28T23:26:25;18.80;99.90
3310;DHT22;1667;53.238;10.394;2022-10-28T23:31:24;18.80;99.90
3310;DHT22;1667;53.238;10.394;2022-10-28T23:36:22;18.80;99.90
3310;DHT22;1667;53.238;10.394;2022-10-28T23:41:21;18.70;99.90
3310;DHT22;1667;53.238;10.394;2022-10-28T23:46:20;18.70;99.90
3310;DHT22;1667;53.238;10.394;2022-10-28T23:51:18;18.70;99.90
3310;DHT22;1667;53.238;10.394;2022-10-28T23:56:16;18.60;99.90
